sensor_id;sensor_type;location;lat;lon;timestamp;pressure;altitude;pressure_sealevel;temperature;humidity
10988;BME280;5547;42.672;23.230;2023-07-08T00:02:28;93613.94;;;15.47;100.00
10988;BME280;5547;42.672;23.230;2023-07-08T00:05:29;93638.44;;;15.75;100.00
10988;BME280;5547;42.672;23.230;2023-07-08T00:08:29;93654.41;;;15.91;100.00
10988;BME280;5547;42.672;23.230;2023-07-08T00:11:30;93600.47;;;15.77;100.00
10988;BME280;5547;42.672;23.230;2023-07-08T00:14:30;93629.22;;;16.02;100.00
10988;BME280;5547;42.672;23.230;2023-07-08T00:17:30;93639.94;;;16.02;100.00
10988;BME280;5547;42.672;23.230;2023-07-08T00:20:39;93624.16;;;15.91;100.00
10988;BME280;5547;42.672;23.230;2023-07-08T00:23:44;93621.81;;;15.80;100.00
10988;BME280;5547;42.672;23.230;2023-07-08T00:26:46;93623.00;;;15.79;100.00
10988;BME280;5547;42.672;23.230;2023-07-08T00:29:46;93575.75;;;15.43;100.00
10988;BME280;5547;42.672;23.230;2023-07-08T00:32:47;93624.16;;;15.65;100.00
10988;BME280;5547;42.672;23.230;2023-07-08T00:35:47;93603.56;;;15.62;100.00
10988;BME280;5547;42.672;23.230;2023-07-08T00:38:47;93625.63;;;15.66;100.00
10988;BME280;5547;42.672;23.230;2023-07-08T00:41:49;93617.50;;;15.70;100.00
10988;BME280;5547;42.672;23.230;2023-07-08T00:44:49;93571.81;;;15.35;100.00
10988;BME280;5547;42.672;23.230;2023-07-08T00:47:50;93608.81;;;15.66;100.00
10988;BME280;5547;42.672;23.230;2023-07-08T00:50:52;93591.66;;;15.50;100.00
10988;BME280;5547;42.672;23.230;2023-07-08T00:53:52;93569.44;;;15.37;100.00
10988;BME280;5547;42.672;23.230;2023-07-08T00:56:59;93553.88;;;15.19;100.00
10988;BME280;5547;42.672;23.230;2023-07-08T01:00:07;93458.91;;;14.56;100.00
10988;BME280;5547;42.672;23.230;2023-07-08T01:03:09;93564.81;;;15.25;100.00
10988;BME280;5547;42.672;23.230;2023-07-08T01:06:09;93565.81;;;15.18;100.00
10988;BME280;5547;42.672;23.230;2023-07-08T01:09:12;93568.47;;;15.31;100.00
10988;BME280;5547;42.672;23.230;2023-07-08T01:12:17;93597.22;;;15.43;100.00
10988;BME280;5547;42.672;23.230;2023-07-08T01:15:21;93598.81;;;15.41;100.00
10988;BME280;5547;42.672;23.230;2023-07-08T01:18:24;93565.03;;;15.18;100.00
10988;BME280;5547;42.672;23.230;2023-07-08T01:21:31;93585.50;;;15.24;100.00
10988;BME280;5547;42.672;23.230;2023-07-08T01:24:35;93574.03;;;15.24;100.00
10988;BME280;5547;42.672;23.230;2023-07-08T01:27:38;93579.41;;;15.24;100.00
10988;BME280;5547;42.672;23.230;2023-07-08T01:30:41;93575.22;;;15.10;100.00
10988;BME280;5547;42.672;23.230;2023-07-08T01:33:42;93569.22;;;15.19;100.00
10988;BME280;5547;42.672;23.230;2023-07-08T01:36:47;93576.19;;;15.29;100.00
10988;BME280;5547;42.672;23.230;2023-07-08T01:39:48;93571.91;;;15.19;100.00
10988;BME280;5547;42.672;23.230;2023-07-08T01:42:48;93576.72;;;15.24;100.00
10988;BME280;5547;42.672;23.230;2023-07-08T01:45:50;93572.31;;;15.17;100.00
10988;BME280;5547;42.672;23.230;2023-07-08T01:48:54;93582.00;;;15.27;100.00
10988;BME280;5547;42.672;23.230;2023-07-08T01:51:57;93558.38;;;15.09;100.00
10988;BME280;5547;42.672;23.230;2023-07-08T01:54:57;93497.03;;;14.60;100.00
10988;BME280;5547;42.672;23.230;2023-07-08T01:57:58;93570.72;;;15.07;100.00
10988;BME280;5547;42.672;23.230;2023-07-08T02:00:59;93494.38;;;14.44;100.00
10988;BME280;5547;42.672;23.230;2023-07-08T02:03:59;93574.22;;;14.91;100.00
10988;BME280;5547;42.672;23.230;2023-07-08T02:07:00;93559.41;;;14.86;100.00
10988;BME280;5547;42.672;23.230;2023-07-08T02:10:01;93559.75;;;14.88;100.00
10988;BME280;5547;42.672;23.230;2023-07-08T02:13:01;93568.38;;;14.80;100.00
10988;BME280;5547;42.672;23.230;2023-07-08T02:16:01;93581.91;;;14.89;100.00
10988;BME280;5547;42.672;23.230;2023-07-08T02:19:02;93546.63;;;14.78;100.00
10988;BME280;5547;42.672;23.230;2023-07-08T02:22:02;93537.72;;;14.68;100.00
10988;BME280;5547;42.672;23.230;2023-07-08T02:25:05;93587.16;;;14.92;100.00
10988;BME280;5547;42.672;23.230;2023-07-08T02:28:05;93584.34;;;14.83;100.00
10988;BME280;5547;42.672;23.230;2023-07-08T02:31:05;93583.47;;;14.74;100.00
10988;BME280;5547;42.672;23.230;2023-07-08T02:34:06;93594.63;;;14.72;100.00
10988;BME280;5547;42.672;23.230;2023-07-08T02:37:06;93582.72;;;14.73;100.00
10988;BME280;5547;42.672;23.230;2023-07-08T02:40:08;93586.66;;;14.68;100.00
10988;BME280;5547;42.672;23.230;2023-07-08T02:43:08;93545.75;;;14.39;100.00
10988;BME280;5547;42.672;23.230;2023-07-08T02:46:08;93602.94;;;14.74;100.00
10988;BME280;5547;42.672;23.230;2023-07-08T02:49:09;93607.75;;;14.66;100.00
10988;BME280;5547;42.672;23.230;2023-07-08T02:52:09;93608.88;;;14.82;100.00
10988;BME280;5547;42.672;23.230;2023-07-08T02:55:10;93609.97;;;14.84;100.00
10988;BME280;5547;42.672;23.230;2023-07-08T02:58:10;93595.69;;;14.75;100.00
10988;BME280;5547;42.672;23.230;2023-07-08T03:01:11;93602.53;;;14.76;100.00
10988;BME280;5547;42.672;23.230;2023-07-08T03:04:11;93614.09;;;14.73;100.00
10988;BME280;5547;42.672;23.230;2023-07-08T03:07:14;93617.34;;;14.80;100.00
10988;BME280;5547;42.672;23.230;2023-07-08T03:10:14;93616.03;;;14.72;100.00
10988;BME280;5547;42.672;23.230;2023-07-08T03:13:15;93565.22;;;14.39;100.00
10988;BME280;5547;42.672;23.230;2023-07-08T03:16:15;93598.38;;;14.75;100.00
10988;BME280;5547;42.672;23.230;2023-07-08T03:19:16;93591.81;;;14.76;100.00
10988;BME280;5547;42.672;23.230;2023-07-08T03:22:17;93617.06;;;14.91;100.00
10988;BME280;5547;42.672;23.230;2023-07-08T03:25:17;93564.38;;;14.71;100.00
10988;BME280;5547;42.672;23.230;2023-07-08T03:28:20;93604.47;;;15.04;100.00
10988;BME280;5547;42.672;23.230;2023-07-08T03:31:20;93556.63;;;14.90;100.00
10988;BME280;5547;42.672;23.230;2023-07-08T03:34:21;93555.13;;;15.02;100.00
10988;BME280;5547;42.672;23.230;2023-07-08T03:37:21;93611.50;;;15.53;100.00
10988;BME280;5547;42.672;23.230;2023-07-08T03:40:21;93605.69;;;15.67;100.00
10988;BME280;5547;42.672;23.230;2023-07-08T03:43:22;93593.28;;;15.73;100.00
10988;BME280;5547;42.672;23.230;2023-07-08T03:46:22;93602.59;;;15.82;100.00
10988;BME280;5547;42.672;23.230;2023-07-08T03:49:23;93602.28;;;15.92;100.00
10988;BME280;5547;42.672;23.230;2023-07-08T03:52:24;93600.38;;;16.41;100.00
10988;BME280;5547;42.672;23.230;2023-07-08T03:55:27;93580.78;;;16.53;100.00
10988;BME280;5547;42.672;23.230;2023-07-08T03:58:28;93590.56;;;16.82;100.00
10988;BME280;5547;42.672;23.230;2023-07-08T04:01:28;93549.53;;;17.03;100.00
10988;BME280;5547;42.672;23.230;2023-07-08T04:04:29;93598.25;;;17.46;100.00
10988;BME280;5547;42.672;23.230;2023-07-08T04:07:29;93525.47;;;16.77;100.00
10988;BME280;5547;42.672;23.230;2023-07-08T04:10:30;93608.22;;;17.36;100.00
10988;BME280;5547;42.672;23.230;2023-07-08T04:13:31;93530.53;;;16.75;100.00
10988;BME280;5547;42.672;23.230;2023-07-08T04:19:45;93605.50;;;17.27;100.00
10988;BME280;5547;42.672;23.230;2023-07-08T04:22:46;93610.69;;;17.52;100.00
10988;BME280;5547;42.672;23.230;2023-07-08T04:25:47;93596.81;;;17.54;100.00
10988;BME280;5547;42.672;23.230;2023-07-08T04:28:49;93608.19;;;17.89;100.00
10988;BME280;5547;42.672;23.230;2023-07-08T04:31:50;93564.13;;;17.64;100.00
10988;BME280;5547;42.672;23.230;2023-07-08T04:34:53;93640.22;;;18.05;100.00
10988;BME280;5547;42.672;23.230;2023-07-08T04:37:54;93641.50;;;18.41;100.00
10988;BME280;5547;42.672;23.230;2023-07-08T04:40:54;93617.06;;;18.17;100.00
10988;BME280;5547;42.672;23.230;2023-07-08T04:43:55;93553.50;;;18.01;100.00
10988;BME280;5547;42.672;23.230;2023-07-08T04:46:57;93547.06;;;17.99;100.00
10988;BME280;5547;42.672;23.230;2023-07-08T04:49:58;93622.06;;;18.46;100.00
10988;BME280;5547;42.672;23.230;2023-07-08T04:52:58;93602.19;;;18.44;100.00
10988;BME280;5547;42.672;23.230;2023-07-08T04:55:59;93637.66;;;18.70;100.00
10988;BME280;5547;42.672;23.230;2023-07-08T04:58:59;93609.09;;;18.82;100.00
10988;BME280;5547;42.672;23.230;2023-07-08T05:02:00;93650.84;;;19.33;100.00
10988;BME280;5547;42.672;23.230;2023-07-08T05:05:01;93644.84;;;19.28;100.00
10988;BME280;5547;42.672;23.230;2023-07-08T05:08:01;93621.81;;;19.09;100.00
10988;BME280;5547;42.672;23.230;2023-07-08T05:11:02;93656.84;;;19.27;100.00
10988;BME280;5547;42.672;23.230;2023-07-08T05:14:04;93651.16;;;18.98;100.00
10988;BME280;5547;42.672;23.230;2023-07-08T05:17:04;93585.28;;;18.80;100.00
10988;BME280;5547;42.672;23.230;2023-07-08T05:20:11;93641.56;;;18.97;100.00
10988;BME280;5547;42.672;23.230;2023-07-08T05:23:12;93661.91;;;19.35;100.00
10988;BME280;5547;42.672;23.230;2023-07-08T05:26:13;93666.78;;;19.64;100.00
10988;BME280;5547;42.672;23.230;2023-07-08T05:29:13;93632.00;;;19.66;100.00
10988;BME280;5547;42.672;23.230;2023-07-08T05:32:13;93637.00;;;19.49;100.00
10988;BME280;5547;42.672;23.230;2023-07-08T05:35:14;93650.38;;;19.43;100.00
10988;BME280;5547;42.672;23.230;2023-07-08T05:38:14;93667.84;;;19.85;100.00
10988;BME280;5547;42.672;23.230;2023-07-08T05:41:15;93662.19;;;19.55;100.00
10988;BME280;5547;42.672;23.230;2023-07-08T05:44:15;93668.94;;;19.50;100.00
10988;BME280;5547;42.672;23.230;2023-07-08T05:47:15;93621.47;;;19.25;100.00
10988;BME280;5547;42.672;23.230;2023-07-08T05:50:16;93632.28;;;19.07;100.00
10988;BME280;5547;42.672;23.230;2023-07-08T05:53:18;93649.91;;;19.36;100.00
10988;BME280;5547;42.672;23.230;2023-07-08T05:56:20;93674.75;;;19.67;100.00
10988;BME280;5547;42.672;23.230;2023-07-08T05:59:20;93576.44;;;18.98;100.00
10988;BME280;5547;42.672;23.230;2023-07-08T06:02:21;93668.34;;;19.37;100.00
10988;BME280;5547;42.672;23.230;2023-07-08T06:05:23;93622.13;;;19.02;100.00
10988;BME280;5547;42.672;23.230;2023-07-08T06:08:23;93665.34;;;18.71;100.00
10988;BME280;5547;42.672;23.230;2023-07-08T06:11:24;93678.38;;;19.46;100.00
10988;BME280;5547;42.672;23.230;2023-07-08T06:14:24;93656.06;;;19.36;100.00
10988;BME280;5547;42.672;23.230;2023-07-08T06:17:25;93683.22;;;19.93;100.00
10988;BME280;5547;42.672;23.230;2023-07-08T06:20:25;93687.47;;;20.19;100.00
10988;BME280;5547;42.672;23.230;2023-07-08T06:23:26;93686.91;;;20.14;100.00
10988;BME280;5547;42.672;23.230;2023-07-08T06:26:26;93632.53;;;19.98;100.00
10988;BME280;5547;42.672;23.230;2023-07-08T06:29:27;93722.94;;;20.78;100.00
10988;BME280;5547;42.672;23.230;2023-07-08T06:32:27;93697.34;;;20.88;100.00
10988;BME280;5547;42.672;23.230;2023-07-08T06:35:28;93714.31;;;20.55;100.00
10988;BME280;5547;42.672;23.230;2023-07-08T06:38:28;93711.03;;;20.85;100.00
10988;BME280;5547;42.672;23.230;2023-07-08T06:41:28;93708.91;;;21.52;100.00
10988;BME280;5547;42.672;23.230;2023-07-08T06:44:29;93674.66;;;21.10;100.00
10988;BME280;5547;42.672;23.230;2023-07-08T06:47:29;93656.75;;;20.40;100.00
10988;BME280;5547;42.672;23.230;2023-07-08T06:50:30;93624.94;;;20.20;100.00
10988;BME280;5547;42.672;23.230;2023-07-08T06:53:30;93548.81;;;19.73;100.00
10988;BME280;5547;42.672;23.230;2023-07-08T06:56:31;93679.25;;;20.46;100.00
10988;BME280;5547;42.672;23.230;2023-07-08T06:59:31;93706.84;;;21.47;100.00
10988;BME280;5547;42.672;23.230;2023-07-08T07:02:32;93712.19;;;21.32;100.00
10988;BME280;5547;42.672;23.230;2023-07-08T07:05:33;93712.16;;;20.93;100.00
10988;BME280;5547;42.672;23.230;2023-07-08T07:08:33;93717.03;;;20.55;100.00
10988;BME280;5547;42.672;23.230;2023-07-08T07:11:34;93721.25;;;20.14;100.00
10988;BME280;5547;42.672;23.230;2023-07-08T07:14:34;93704.66;;;19.97;100.00
10988;BME280;5547;42.672;23.230;2023-07-08T07:17:34;93715.81;;;19.81;100.00
10988;BME280;5547;42.672;23.230;2023-07-08T07:20:37;93720.91;;;20.30;100.00
10988;BME280;5547;42.672;23.230;2023-07-08T07:23:38;93694.31;;;20.38;100.00
10988;BME280;5547;42.672;23.230;2023-07-08T07:26:38;93726.22;;;20.15;100.00
10988;BME280;5547;42.672;23.230;2023-07-08T07:29:47;93726.25;;;20.06;100.00
10988;BME280;5547;42.672;23.230;2023-07-08T07:32:48;93734.44;;;19.69;100.00
10988;BME280;5547;42.672;23.230;2023-07-08T07:35:48;93748.91;;;20.00;100.00
10988;BME280;5547;42.672;23.230;2023-07-08T07:38:48;93745.19;;;19.88;100.00
10988;BME280;5547;42.672;23.230;2023-07-08T07:41:49;93735.47;;;19.81;100.00
10988;BME280;5547;42.672;23.230;2023-07-08T07:44:49;93727.94;;;19.94;100.00
10988;BME280;5547;42.672;23.230;2023-07-08T07:47:50;93740.38;;;20.01;100.00
10988;BME280;5547;42.672;23.230;2023-07-08T07:50:50;93741.31;;;20.65;100.00
10988;BME280;5547;42.672;23.230;2023-07-08T07:53:53;93738.91;;;21.15;100.00
10988;BME280;5547;42.672;23.230;2023-07-08T07:56:54;93750.34;;;21.34;100.00
10988;BME280;5547;42.672;23.230;2023-07-08T07:59:54;93740.19;;;21.05;100.00
10988;BME280;5547;42.672;23.230;2023-07-08T08:02:55;93757.53;;;21.76;100.00
10988;BME280;5547;42.672;23.230;2023-07-08T08:05:55;93741.31;;;21.91;100.00
10988;BME280;5547;42.672;23.230;2023-07-08T08:08:55;93752.88;;;21.91;100.00
10988;BME280;5547;42.672;23.230;2023-07-08T08:12:01;93771.16;;;22.11;100.00
10988;BME280;5547;42.672;23.230;2023-07-08T08:15:02;93725.41;;;21.69;100.00
10988;BME280;5547;42.672;23.230;2023-07-08T08:18:03;93752.31;;;21.87;100.00
10988;BME280;5547;42.672;23.230;2023-07-08T08:21:03;93751.94;;;21.79;100.00
10988;BME280;5547;42.672;23.230;2023-07-08T08:24:04;93745.59;;;21.29;100.00
10988;BME280;5547;42.672;23.230;2023-07-08T08:27:04;93729.06;;;21.03;100.00
10988;BME280;5547;42.672;23.230;2023-07-08T08:30:05;93748.66;;;21.36;100.00
10988;BME280;5547;42.672;23.230;2023-07-08T08:33:06;93750.13;;;21.47;100.00
10988;BME280;5547;42.672;23.230;2023-07-08T08:36:07;93710.19;;;21.17;100.00
10988;BME280;5547;42.672;23.230;2023-07-08T08:39:07;93742.19;;;20.95;100.00
10988;BME280;5547;42.672;23.230;2023-07-08T08:42:34;93752.72;;;21.41;100.00
10988;BME280;5547;42.672;23.230;2023-07-08T08:46:05;93751.94;;;21.79;100.00
10988;BME280;5547;42.672;23.230;2023-07-08T08:52:16;93699.97;;;20.40;100.00
10988;BME280;5547;42.672;23.230;2023-07-08T08:55:16;93698.09;;;20.65;100.00
10988;BME280;5547;42.672;23.230;2023-07-08T09:01:39;93722.81;;;20.96;100.00
10988;BME280;5547;42.672;23.230;2023-07-08T09:04:40;93715.41;;;21.21;100.00
10988;BME280;5547;42.672;23.230;2023-07-08T09:08:04;93730.28;;;22.09;100.00
10988;BME280;5547;42.672;23.230;2023-07-08T09:14:28;93749.31;;;22.30;100.00
10988;BME280;5547;42.672;23.230;2023-07-08T09:17:31;93748.97;;;22.22;100.00
10988;BME280;5547;42.672;23.230;2023-07-08T09:20:34;93741.47;;;21.57;100.00
10988;BME280;5547;42.672;23.230;2023-07-08T09:23:37;93731.94;;;21.47;100.00
10988;BME280;5547;42.672;23.230;2023-07-08T09:26:39;93716.09;;;21.85;100.00
10988;BME280;5547;42.672;23.230;2023-07-08T09:29:41;93737.28;;;22.01;100.00
10988;BME280;5547;42.672;23.230;2023-07-08T09:32:41;93737.84;;;22.35;100.00
10988;BME280;5547;42.672;23.230;2023-07-08T09:35:45;93712.34;;;22.12;100.00
10988;BME280;5547;42.672;23.230;2023-07-08T09:38:48;93727.94;;;21.57;100.00
10988;BME280;5547;42.672;23.230;2023-07-08T09:41:49;93730.09;;;22.28;100.00
10988;BME280;5547;42.672;23.230;2023-07-08T09:44:54;93716.59;;;22.48;100.00
10988;BME280;5547;42.672;23.230;2023-07-08T09:47:56;93719.63;;;21.61;100.00
10988;BME280;5547;42.672;23.230;2023-07-08T09:50:57;93716.84;;;21.31;100.00
10988;BME280;5547;42.672;23.230;2023-07-08T09:53:58;93707.50;;;21.71;100.00
10988;BME280;5547;42.672;23.230;2023-07-08T09:57:04;93688.06;;;21.58;100.00
10988;BME280;5547;42.672;23.230;2023-07-08T10:00:15;93704.00;;;22.15;100.00
10988;BME280;5547;42.672;23.230;2023-07-08T10:03:23;93686.03;;;21.97;100.00
10988;BME280;5547;42.672;23.230;2023-07-08T10:06:27;93695.72;;;22.04;100.00
10988;BME280;5547;42.672;23.230;2023-07-08T10:09:28;93708.06;;;22.05;100.00
10988;BME280;5547;42.672;23.230;2023-07-08T10:12:31;93695.25;;;22.06;100.00
10988;BME280;5547;42.672;23.230;2023-07-08T10:15:39;93700.75;;;22.11;100.00
10988;BME280;5547;42.672;23.230;2023-07-08T10:18:42;93663.63;;;21.67;100.00
10988;BME280;5547;42.672;23.230;2023-07-08T10:32:24;93679.94;;;22.53;100.00
10988;BME280;5547;42.672;23.230;2023-07-08T10:35:33;93672.25;;;22.31;100.00
10988;BME280;5547;42.672;23.230;2023-07-08T10:38:41;93672.03;;;22.49;100.00
10988;BME280;5547;42.672;23.230;2023-07-08T10:45:13;93673.06;;;22.72;100.00
10988;BME280;5547;42.672;23.230;2023-07-08T11:08:31;93650.91;;;22.74;76.11
10988;BME280;5547;42.672;23.230;2023-07-08T11:15:03;93652.47;;;23.01;80.51
10988;BME280;5547;42.672;23.230;2023-07-08T11:21:24;93617.56;;;23.40;74.21
10988;BME280;5547;42.672;23.230;2023-07-08T11:24:46;93575.75;;;23.00;73.39
10988;BME280;5547;42.672;23.230;2023-07-08T11:27:50;93624.72;;;23.64;73.83
10988;BME280;5547;42.672;23.230;2023-07-08T11:30:52;93649.19;;;23.69;71.91
10988;BME280;5547;42.672;23.230;2023-07-08T11:33:53;93648.56;;;23.80;74.06
10988;BME280;5547;42.672;23.230;2023-07-08T11:36:55;93653.72;;;23.26;73.92
10988;BME280;5547;42.672;23.230;2023-07-08T11:40:17;93629.94;;;22.95;75.36
10988;BME280;5547;42.672;23.230;2023-07-08T11:43:19;93655.09;;;22.95;78.32
10988;BME280;5547;42.672;23.230;2023-07-08T11:46:23;93642.97;;;23.37;79.27
10988;BME280;5547;42.672;23.230;2023-07-08T11:49:25;93600.28;;;23.64;74.26
10988;BME280;5547;42.672;23.230;2023-07-08T11:52:26;93646.53;;;23.23;71.11
10988;BME280;5547;42.672;23.230;2023-07-08T11:55:47;93656.22;;;23.56;70.72
10988;BME280;5547;42.672;23.230;2023-07-08T11:59:15;93654.25;;;23.56;70.64
10988;BME280;5547;42.672;23.230;2023-07-08T12:02:19;93658.34;;;23.72;68.09
10988;BME280;5547;42.672;23.230;2023-07-08T12:05:40;93648.88;;;24.25;68.15
10988;BME280;5547;42.672;23.230;2023-07-08T12:08:41;93433.25;;;22.99;66.80
10988;BME280;5547;42.672;23.230;2023-07-08T12:11:47;93483.03;;;23.65;66.12
10988;BME280;5547;42.672;23.230;2023-07-08T12:14:48;93486.38;;;23.17;73.79
10988;BME280;5547;42.672;23.230;2023-07-08T12:18:15;93644.41;;;24.22;71.45
10988;BME280;5547;42.672;23.230;2023-07-08T12:21:16;93637.34;;;24.85;63.78
10988;BME280;5547;42.672;23.230;2023-07-08T12:24:18;93624.63;;;25.19;60.88
10988;BME280;5547;42.672;23.230;2023-07-08T12:27:29;93658.69;;;25.03;60.83
10988;BME280;5547;42.672;23.230;2023-07-08T12:30:31;93654.59;;;25.30;58.34
10988;BME280;5547;42.672;23.230;2023-07-08T12:33:35;93660.72;;;24.60;60.68
10988;BME280;5547;42.672;23.230;2023-07-08T12:37:00;93604.84;;;23.78;62.26
10988;BME280;5547;42.672;23.230;2023-07-08T12:40:01;93566.97;;;23.37;62.33
10988;BME280;5547;42.672;23.230;2023-07-08T12:43:09;93650.31;;;24.52;62.18
10988;BME280;5547;42.672;23.230;2023-07-08T12:46:15;93481.25;;;22.93;62.30
10988;BME280;5547;42.672;23.230;2023-07-08T12:49:16;93437.38;;;22.42;65.56
10988;BME280;5547;42.672;23.230;2023-07-08T12:52:22;93628.59;;;23.31;67.87
10988;BME280;5547;42.672;23.230;2023-07-08T12:55:23;93640.75;;;23.62;67.65
10988;BME280;5547;42.672;23.230;2023-07-08T12:58:27;93624.50;;;23.41;66.41
10988;BME280;5547;42.672;23.230;2023-07-08T13:01:30;93628.94;;;23.70;68.62
10988;BME280;5547;42.672;23.230;2023-07-08T13:04:40;93639.94;;;23.56;64.71
10988;BME280;5547;42.672;23.230;2023-07-08T13:07:42;93645.94;;;23.92;65.27
10988;BME280;5547;42.672;23.230;2023-07-08T13:10:44;93657.28;;;23.64;64.04
10988;BME280;5547;42.672;23.230;2023-07-08T13:13:53;93598.56;;;23.09;66.45
10988;BME280;5547;42.672;23.230;2023-07-08T13:16:54;93602.72;;;23.94;64.33
10988;BME280;5547;42.672;23.230;2023-07-08T13:19:56;93587.19;;;23.68;61.81
10988;BME280;5547;42.672;23.230;2023-07-08T13:23:01;93589.28;;;23.79;61.13
10988;BME280;5547;42.672;23.230;2023-07-08T13:26:18;93564.59;;;22.72;64.54
10988;BME280;5547;42.672;23.230;2023-07-08T13:29:20;93641.50;;;23.36;68.34
10988;BME280;5547;42.672;23.230;2023-07-08T13:32:31;93611.09;;;22.65;66.05
10988;BME280;5547;42.672;23.230;2023-07-08T13:35:37;93641.66;;;22.86;66.16
10988;BME280;5547;42.672;23.230;2023-07-08T13:38:38;93602.16;;;23.00;68.66
10988;BME280;5547;42.672;23.230;2023-07-08T13:41:43;93630.00;;;22.59;68.77
10988;BME280;5547;42.672;23.230;2023-07-08T13:44:45;93590.53;;;22.17;71.19
10988;BME280;5547;42.672;23.230;2023-07-08T13:47:58;93641.25;;;22.52;74.26
10988;BME280;5547;42.672;23.230;2023-07-08T13:51:07;93625.34;;;22.60;73.15
10988;BME280;5547;42.672;23.230;2023-07-08T13:54:38;93630.09;;;22.85;73.76
10988;BME280;5547;42.672;23.230;2023-07-08T13:57:40;93592.84;;;22.24;70.49
10988;BME280;5547;42.672;23.230;2023-07-08T14:00:41;93543.81;;;21.52;74.68
10988;BME280;5547;42.672;23.230;2023-07-08T14:03:42;93624.38;;;22.07;78.62
10988;BME280;5547;42.672;23.230;2023-07-08T14:06:42;93564.13;;;21.62;74.55
10988;BME280;5547;42.672;23.230;2023-07-08T14:09:45;93593.47;;;21.99;74.37
10988;BME280;5547;42.672;23.230;2023-07-08T14:12:47;93552.22;;;22.24;69.44
10988;BME280;5547;42.672;23.230;2023-07-08T14:15:51;93648.72;;;23.71;64.93
10988;BME280;5547;42.672;23.230;2023-07-08T14:18:51;93597.72;;;23.55;62.83
10988;BME280;5547;42.672;23.230;2023-07-08T14:21:57;93614.19;;;23.45;67.49
10988;BME280;5547;42.672;23.230;2023-07-08T14:25:06;93614.81;;;23.35;64.34
10988;BME280;5547;42.672;23.230;2023-07-08T14:28:07;93635.25;;;23.82;62.91
10988;BME280;5547;42.672;23.230;2023-07-08T14:31:10;93615.25;;;23.01;66.30
10988;BME280;5547;42.672;23.230;2023-07-08T14:34:13;93637.25;;;22.68;67.33
10988;BME280;5547;42.672;23.230;2023-07-08T14:37:18;93638.88;;;22.39;69.02
10988;BME280;5547;42.672;23.230;2023-07-08T14:40:26;93634.47;;;22.42;68.26
10988;BME280;5547;42.672;23.230;2023-07-08T14:43:32;93609.38;;;22.27;69.76
10988;BME280;5547;42.672;23.230;2023-07-08T14:46:33;93635.69;;;22.41;69.87
10988;BME280;5547;42.672;23.230;2023-07-08T14:49:33;93508.69;;;21.72;68.53
10988;BME280;5547;42.672;23.230;2023-07-08T14:52:33;93600.72;;;23.04;69.34
10988;BME280;5547;42.672;23.230;2023-07-08T14:55:35;93626.00;;;23.42;67.66
10988;BME280;5547;42.672;23.230;2023-07-08T14:58:39;93628.97;;;23.18;68.95
10988;BME280;5547;42.672;23.230;2023-07-08T15:01:42;93638.94;;;23.27;67.41
10988;BME280;5547;42.672;23.230;2023-07-08T15:04:44;93630.28;;;23.02;69.72
10988;BME280;5547;42.672;23.230;2023-07-08T15:07:51;93640.38;;;22.81;68.40
10988;BME280;5547;42.672;23.230;2023-07-08T15:10:54;93644.31;;;22.80;71.49
10988;BME280;5547;42.672;23.230;2023-07-08T15:13:54;93655.09;;;22.95;69.79
10988;BME280;5547;42.672;23.230;2023-07-08T15:16:54;93629.72;;;22.98;67.51
10988;BME280;5547;42.672;23.230;2023-07-08T15:19:55;93647.56;;;23.05;66.45
10988;BME280;5547;42.672;23.230;2023-07-08T15:22:55;93590.78;;;22.19;69.45
10988;BME280;5547;42.672;23.230;2023-07-08T15:25:56;93646.25;;;22.59;71.52
10988;BME280;5547;42.672;23.230;2023-07-08T15:28:56;93644.06;;;22.78;68.80
10988;BME280;5547;42.672;23.230;2023-07-08T15:31:57;93644.09;;;23.25;65.76
10988;BME280;5547;42.672;23.230;2023-07-08T15:34:58;93611.44;;;22.73;67.23
10988;BME280;5547;42.672;23.230;2023-07-08T15:37:58;93638.16;;;23.00;65.49
10988;BME280;5547;42.672;23.230;2023-07-08T15:40:59;93640.94;;;22.85;68.84
10988;BME280;5547;42.672;23.230;2023-07-08T15:44:00;93657.88;;;22.60;68.61
10988;BME280;5547;42.672;23.230;2023-07-08T15:47:01;93636.03;;;22.49;68.83
10988;BME280;5547;42.672;23.230;2023-07-08T15:50:15;93650.75;;;22.27;69.70
10988;BME280;5547;42.672;23.230;2023-07-08T15:53:16;93661.69;;;22.33;71.33
10988;BME280;5547;42.672;23.230;2023-07-08T15:56:19;93659.09;;;22.59;70.67
10988;BME280;5547;42.672;23.230;2023-07-08T15:59:26;93661.06;;;22.23;71.34
10988;BME280;5547;42.672;23.230;2023-07-08T16:02:28;93645.13;;;21.95;70.50
10988;BME280;5547;42.672;23.230;2023-07-08T16:05:30;93618.38;;;21.53;71.32
10988;BME280;5547;42.672;23.230;2023-07-08T16:08:34;93657.38;;;21.76;75.57
10988;BME280;5547;42.672;23.230;2023-07-08T16:11:34;93657.47;;;21.67;75.91
10988;BME280;5547;42.672;23.230;2023-07-08T16:14:38;93665.13;;;21.68;75.02
10988;BME280;5547;42.672;23.230;2023-07-08T16:17:39;93659.63;;;21.48;74.18
10988;BME280;5547;42.672;23.230;2023-07-08T16:20:42;93661.47;;;21.42;74.45
10988;BME280;5547;42.672;23.230;2023-07-08T16:23:43;93658.19;;;21.37;72.94
10988;BME280;5547;42.672;23.230;2023-07-08T16:26:43;93582.38;;;20.78;73.42
10988;BME280;5547;42.672;23.230;2023-07-08T16:29:44;93660.03;;;21.31;72.90
10988;BME280;5547;42.672;23.230;2023-07-08T16:32:44;93613.66;;;21.09;73.32
10988;BME280;5547;42.672;23.230;2023-07-08T16:35:45;93651.50;;;21.48;72.74
10988;BME280;5547;42.672;23.230;2023-07-08T16:38:46;93584.81;;;20.91;72.63
10988;BME280;5547;42.672;23.230;2023-07-08T16:41:46;93635.03;;;21.22;72.90
10988;BME280;5547;42.672;23.230;2023-07-08T16:44:48;93630.53;;;21.04;71.96
10988;BME280;5547;42.672;23.230;2023-07-08T16:47:50;93579.81;;;20.60;72.22
10988;BME280;5547;42.672;23.230;2023-07-08T16:50:50;93651.06;;;21.25;71.99
10988;BME280;5547;42.672;23.230;2023-07-08T16:53:56;93656.84;;;21.18;72.54